createdAt,value
2023-01-25T00:01:19.312Z,22.13
2023-01-25T00:03:47.444Z,20.40
2023-01-25T00:06:17.263Z,22.90
2023-01-25T00:08:45.313Z,18.93
2023-01-25T00:11:13.550Z,20.30
2023-01-25T00:13:41.748Z,18.23
2023-01-25T00:16:09.989Z,17.87
2023-01-25T00:18:38.102Z,27.90
2023-01-25T00:21:14.050Z,18.63
2023-01-25T00:23:43.586Z,18.37
2023-01-25T00:26:11.724Z,18.73
2023-01-25T00:28:39.971Z,18.53
2023-01-25T00:31:09.410Z,20.73
2023-01-25T00:33:50.755Z,17.33
2023-01-25T00:36:43.074Z,15.97
2023-01-25T00:39:14.609Z,15.40
2023-01-25T00:41:42.620Z,15.60
2023-01-25T00:44:11.033Z,15.57
2023-01-25T00:46:39.025Z,15.87
2023-01-25T00:49:07.401Z,14.00
2023-01-25T00:51:35.568Z,15.37
2023-01-25T00:54:03.625Z,15.97
2023-01-25T00:56:33.193Z,16.93
2023-01-25T00:59:01.729Z,16.63
2023-01-25T01:01:29.739Z,15.63
2023-01-25T01:03:57.781Z,15.67
2023-01-25T01:06:25.816Z,14.87
2023-01-25T01:08:53.923Z,21.63
2023-01-25T01:11:21.934Z,18.00
2023-01-25T01:13:51.431Z,15.90
2023-01-25T01:16:19.541Z,14.97
2023-01-25T01:18:48.384Z,16.50
2023-01-25T01:21:17.115Z,16.23
2023-01-25T01:23:45.536Z,16.67
2023-01-25T01:26:15.825Z,16.13
2023-01-25T01:28:45.004Z,16.73
2023-01-25T01:31:16.278Z,17.27
2023-01-25T01:33:44.525Z,18.93
2023-01-25T01:36:15.103Z,19.47
2023-01-25T01:38:43.839Z,17.20
2023-01-25T01:41:12.643Z,17.10
2023-01-25T01:43:41.065Z,16.07
2023-01-25T01:46:16.303Z,15.83
2023-01-25T01:48:49.309Z,15.80
2023-01-25T01:51:24.232Z,16.50
2023-01-25T01:53:57.290Z,15.47
2023-01-25T01:56:32.345Z,16.30
2023-01-25T01:59:01.619Z,16.23
2023-01-25T02:01:31.610Z,16.77
2023-01-25T02:04:01.317Z,18.67
2023-01-25T02:06:37.993Z,16.90
2023-01-25T02:09:06.133Z,18.30
2023-01-25T02:11:35.307Z,18.73
2023-01-25T02:14:03.947Z,17.40
2023-01-25T02:16:35.339Z,17.07
2023-01-25T02:19:04.851Z,17.70
2023-01-25T02:21:42.349Z,17.07
2023-01-25T02:24:16.056Z,16.77
2023-01-25T02:26:46.017Z,16.67
2023-01-25T02:29:14.692Z,16.43
2023-01-25T02:31:45.852Z,15.07
2023-01-25T02:34:14.092Z,16.47
2023-01-25T02:36:42.559Z,16.37
2023-01-25T02:39:17.294Z,15.10
2023-01-25T02:41:49.485Z,16.43
2023-01-25T02:44:20.025Z,15.20
2023-01-25T02:46:49.022Z,15.27
2023-01-25T02:49:17.580Z,16.40
2023-01-25T02:51:47.702Z,17.37
2023-01-25T02:54:18.947Z,15.70
2023-01-25T02:56:48.629Z,15.90
2023-01-25T02:59:19.098Z,16.30
2023-01-25T03:01:49.032Z,15.93
2023-01-25T03:04:17.713Z,17.13
2023-01-25T03:06:45.794Z,17.33
2023-01-25T03:09:14.058Z,16.03
2023-01-25T03:11:43.369Z,16.37
2023-01-25T03:14:12.868Z,16.50
2023-01-25T03:16:41.061Z,16.80
2023-01-25T03:19:09.074Z,17.47
2023-01-25T03:21:37.072Z,17.23
2023-01-25T03:24:05.545Z,17.43
2023-01-25T03:26:53.616Z,16.40
2023-01-25T03:29:23.127Z,17.17
2023-01-25T03:31:51.420Z,15.60
2023-01-25T03:34:19.709Z,16.70
2023-01-25T03:36:47.943Z,16.33
2023-01-25T03:39:15.973Z,15.77
2023-01-25T03:41:44.068Z,16.30
2023-01-25T03:44:12.655Z,15.83
2023-01-25T03:46:42.859Z,15.23
2023-01-25T03:49:11.172Z,16.43
2023-01-25T03:51:39.814Z,16.03
2023-01-25T03:54:08.483Z,15.13
2023-01-25T03:56:36.588Z,16.70
2023-01-25T03:59:04.985Z,16.70
2023-01-25T04:01:33.144Z,16.40
2023-01-25T04:04:04.326Z,15.23
2023-01-25T04:06:32.417Z,16.67
2023-01-25T04:09:00.485Z,15.27
2023-01-25T04:11:28.983Z,16.00
2023-01-25T04:13:57.337Z,16.93
2023-01-25T04:16:25.643Z,16.80
2023-01-25T04:18:53.763Z,16.33
2023-01-25T04:21:23.499Z,15.17
2023-01-25T04:23:51.819Z,16.70
2023-01-25T04:26:20.096Z,15.97
2023-01-25T04:28:48.222Z,16.27
2023-01-25T04:31:17.636Z,16.17
2023-01-25T04:33:45.967Z,16.03
2023-01-25T04:36:14.050Z,17.00
2023-01-25T04:38:43.729Z,15.03
2023-01-25T04:41:11.954Z,15.43
2023-01-25T04:43:40.266Z,16.43
2023-01-25T04:46:08.411Z,16.90
2023-01-25T04:48:37.112Z,15.57
2023-01-25T04:51:05.292Z,14.63
2023-01-25T04:53:35.689Z,19.63
2023-01-25T04:56:05.890Z,16.40
2023-01-25T04:58:33.956Z,16.20
2023-01-25T05:01:02.849Z,16.10
2023-01-25T05:03:31.283Z,15.73
2023-01-25T05:05:59.974Z,16.57
2023-01-25T05:08:28.191Z,15.03
2023-01-25T05:10:56.502Z,15.93
2023-01-25T05:13:26.161Z,16.17
2023-01-25T05:15:54.214Z,15.80
2023-01-25T05:18:22.319Z,15.87
2023-01-25T05:20:55.878Z,15.87
2023-01-25T05:23:24.588Z,15.97
2023-01-25T05:26:10.292Z,16.23
2023-01-25T05:28:39.855Z,15.77
2023-01-25T05:31:09.083Z,17.53
2023-01-25T05:33:37.485Z,15.63
2023-01-25T05:36:05.684Z,15.63
2023-01-25T05:38:33.796Z,15.50
2023-01-25T05:41:01.907Z,16.13
2023-01-25T05:43:31.632Z,16.10
2023-01-25T05:46:02.690Z,16.47
2023-01-25T05:48:30.783Z,15.90
2023-01-25T05:51:00.293Z,14.87
2023-01-25T05:53:28.498Z,15.40
2023-01-25T05:55:57.520Z,16.43
2023-01-25T05:58:25.513Z,16.17
2023-01-25T06:00:53.590Z,15.03
2023-01-25T06:03:23.191Z,14.87
2023-01-25T06:05:56.413Z,16.83
2023-01-25T06:08:24.490Z,15.70
2023-01-25T06:10:52.591Z,15.67
2023-01-25T06:13:22.632Z,15.30
2023-01-25T06:15:54.452Z,14.90
2023-01-25T06:18:25.722Z,15.87
2023-01-25T06:20:54.452Z,15.13
2023-01-25T06:23:22.523Z,16.17
2023-01-25T06:25:50.794Z,16.30
2023-01-25T06:28:18.802Z,15.43
2023-01-25T06:30:46.945Z,16.53
2023-01-25T06:33:15.110Z,17.07
2023-01-25T06:35:44.983Z,16.43
2023-01-25T06:38:13.531Z,17.67
2023-01-25T06:40:41.786Z,16.50
2023-01-25T06:43:11.101Z,16.40
2023-01-25T06:45:40.290Z,16.67
2023-01-25T06:48:08.821Z,16.17
2023-01-25T06:50:37.097Z,19.87
2023-01-25T06:53:06.676Z,16.60
2023-01-25T06:55:35.086Z,15.90
2023-01-25T06:58:04.764Z,16.40
2023-01-25T07:00:32.801Z,20.83
2023-01-25T07:03:01.055Z,17.10
2023-01-25T07:05:29.136Z,42.80
2023-01-25T07:07:57.358Z,15.93
2023-01-25T07:10:27.128Z,15.93
2023-01-25T07:12:55.258Z,16.70
2023-01-25T07:15:24.070Z,18.93
2023-01-25T07:17:52.153Z,16.43
2023-01-25T07:20:20.458Z,17.90
2023-01-25T07:22:49.478Z,19.03
2023-01-25T07:25:17.806Z,21.53
2023-01-25T07:27:49.521Z,21.20
2023-01-25T07:30:21.762Z,18.30
2023-01-25T07:32:51.708Z,19.20
2023-01-25T07:35:22.852Z,20.73
2023-01-25T07:37:50.969Z,20.53
2023-01-25T07:40:19.035Z,18.43
2023-01-25T07:42:48.706Z,18.20
2023-01-25T07:45:16.746Z,15.97
2023-01-25T07:47:44.913Z,18.47
2023-01-25T07:50:15.530Z,16.77
2023-01-25T07:52:43.600Z,17.07
2023-01-25T07:55:12.177Z,18.07
2023-01-25T07:57:40.351Z,19.60
2023-01-25T08:00:13.298Z,16.83
2023-01-25T08:02:41.679Z,17.33
2023-01-25T08:05:11.333Z,17.70
2023-01-25T08:07:39.570Z,16.23
2023-01-25T08:10:11.254Z,34.10
2023-01-25T08:12:39.421Z,18.40
2023-01-25T08:15:10.543Z,16.77
2023-01-25T08:17:39.027Z,16.87
2023-01-25T08:20:08.941Z,14.97
2023-01-25T08:22:36.905Z,14.87
2023-01-25T08:25:06.428Z,14.97
2023-01-25T08:27:34.605Z,15.23
2023-01-25T08:30:03.595Z,16.17
2023-01-25T08:32:32.901Z,16.43
2023-01-25T08:35:00.835Z,16.17
2023-01-25T08:37:29.731Z,16.10
2023-01-25T08:39:59.985Z,19.23
2023-01-25T08:42:28.099Z,17.07
2023-01-25T08:44:56.231Z,18.60
2023-01-25T08:47:24.378Z,17.60
2023-01-25T08:49:55.353Z,16.70
2023-01-25T08:52:24.362Z,17.10
2023-01-25T08:54:52.443Z,18.73
2023-01-25T08:57:20.435Z,17.47
2023-01-25T08:59:49.171Z,16.27
2023-01-25T09:02:17.264Z,16.30
2023-01-25T09:04:45.275Z,17.30
2023-01-25T09:07:15.064Z,16.70
2023-01-25T09:09:43.607Z,23.17
2023-01-25T09:12:11.780Z,18.00
2023-01-25T09:14:40.796Z,26.23
2023-01-25T09:17:08.956Z,27.57
2023-01-25T09:19:37.091Z,22.73
2023-01-25T09:22:05.171Z,23.50
2023-01-25T09:24:37.290Z,20.97
2023-01-25T09:27:06.019Z,18.80
2023-01-25T09:29:34.132Z,18.30
2023-01-25T09:32:02.417Z,17.60
2023-01-25T09:34:30.818Z,16.20
2023-01-25T09:36:58.880Z,16.70
2023-01-25T09:39:26.963Z,16.30
2023-01-25T09:42:26.052Z,17.23
2023-01-25T09:45:12.397Z,16.20
2023-01-25T09:47:48.345Z,17.10
2023-01-25T09:50:35.772Z,16.23
2023-01-25T09:53:33.941Z,17.57
2023-01-25T09:56:05.604Z,20.23
2023-01-25T09:58:38.454Z,25.73
2023-01-25T10:01:38.747Z,24.00
2023-01-25T10:04:14.807Z,20.87
2023-01-25T10:06:55.043Z,19.93
2023-01-25T10:09:38.427Z,18.07
2023-01-25T10:12:15.419Z,21.37
2023-01-25T10:14:45.154Z,18.07
2023-01-25T10:17:21.708Z,16.97
2023-01-25T10:20:02.939Z,18.03
2023-01-25T10:22:36.816Z,18.00
2023-01-25T10:25:30.557Z,17.80
2023-01-25T10:28:17.648Z,17.57
2023-01-25T10:30:54.732Z,17.77
2023-01-25T10:33:22.942Z,17.43
2023-01-25T10:35:51.994Z,17.57
2023-01-25T10:38:27.058Z,17.00
2023-01-25T10:41:02.371Z,18.73
2023-01-25T10:43:30.696Z,16.37
2023-01-25T10:46:01.016Z,17.90
2023-01-25T10:48:33.870Z,16.07
2023-01-25T10:51:02.234Z,16.67
2023-01-25T10:53:33.609Z,15.70
2023-01-25T10:56:24.305Z,16.50
2023-01-25T10:58:55.574Z,15.80
2023-01-25T11:01:38.175Z,17.10
2023-01-25T11:04:25.399Z,18.30
2023-01-25T11:06:53.395Z,18.87
2023-01-25T11:09:39.316Z,17.37
2023-01-25T11:12:19.705Z,16.00
2023-01-25T11:14:50.852Z,16.60
2023-01-25T11:17:27.274Z,17.50
2023-01-25T11:20:19.698Z,16.37
2023-01-25T11:22:52.566Z,16.77
2023-01-25T11:25:27.545Z,17.63
2023-01-25T11:28:12.244Z,16.07
2023-01-25T11:30:40.241Z,16.30
2023-01-25T11:33:15.898Z,17.23
2023-01-25T11:36:02.951Z,17.20
2023-01-25T11:38:31.021Z,16.27
2023-01-25T11:41:07.509Z,18.47
2023-01-25T11:43:58.935Z,16.67
2023-01-25T11:46:40.499Z,18.60
2023-01-25T11:49:27.552Z,17.53
2023-01-25T11:52:07.139Z,16.00
2023-01-25T11:54:49.794Z,16.10
2023-01-25T11:57:44.390Z,15.87
2023-01-25T12:00:40.785Z,15.50
2023-01-25T12:03:31.807Z,15.57
2023-01-25T12:06:10.651Z,16.73
2023-01-25T12:08:54.904Z,17.23
2023-01-25T12:11:35.972Z,16.63
2023-01-25T12:14:16.523Z,16.83
2023-01-25T12:17:07.552Z,17.27
2023-01-25T12:19:49.340Z,17.13
2023-01-25T12:22:53.974Z,17.13
2023-01-25T12:25:30.501Z,23.60
2023-01-25T12:28:12.161Z,15.40
2023-01-25T12:30:52.586Z,13.70
2023-01-25T12:33:26.619Z,13.30
2023-01-25T12:36:02.507Z,13.07
2023-01-25T12:38:41.180Z,9.63
2023-01-25T12:41:22.581Z,10.33
2023-01-25T12:43:57.615Z,8.13
2023-01-25T12:46:29.592Z,14.27
2023-01-25T12:49:02.889Z,8.17
2023-01-25T12:51:37.684Z,8.50
2023-01-25T12:54:18.992Z,10.07
2023-01-25T12:56:54.504Z,8.90
2023-01-25T12:59:30.777Z,15.17
2023-01-25T13:02:12.084Z,8.10
2023-01-25T13:04:54.459Z,12.77
2023-01-25T13:07:29.501Z,6.83
2023-01-25T13:10:03.954Z,7.90
2023-01-25T13:12:52.230Z,17.03
2023-01-25T13:15:37.505Z,11.63
2023-01-25T13:18:39.642Z,10.83
2023-01-25T13:21:12.739Z,9.90
2023-01-25T13:23:47.349Z,10.73
2023-01-25T13:26:47.310Z,10.87
2023-01-25T13:29:49.279Z,12.03
2023-01-25T13:32:58.910Z,11.17
2023-01-25T13:35:30.087Z,13.73
2023-01-25T13:38:04.065Z,17.60
2023-01-25T13:40:34.735Z,14.27
2023-01-25T13:43:07.045Z,12.63
2023-01-25T13:45:37.431Z,21.23
2023-01-25T13:48:14.143Z,19.63
2023-01-25T13:50:48.315Z,9.43
2023-01-25T13:53:21.730Z,12.33
2023-01-25T13:55:51.594Z,7.23
2023-01-25T13:58:24.262Z,14.80
2023-01-25T14:00:57.309Z,14.83
2023-01-25T14:03:29.240Z,13.33
2023-01-25T14:05:59.447Z,14.03
2023-01-25T14:08:28.232Z,10.60
2023-01-25T14:10:57.495Z,11.80
2023-01-25T14:13:27.140Z,11.50
2023-01-25T14:15:58.523Z,15.20
2023-01-25T14:18:32.262Z,9.83
2023-01-25T14:21:17.432Z,11.37
2023-01-25T14:23:46.231Z,8.50
2023-01-25T14:26:20.609Z,3.57
2023-01-25T14:29:01.123Z,4.50
2023-01-25T14:31:36.100Z,3.00
2023-01-25T14:34:06.212Z,3.13
2023-01-25T14:36:35.396Z,2.97
2023-01-25T14:39:05.018Z,2.37
2023-01-25T14:41:38.708Z,2.47
2023-01-25T14:44:14.269Z,2.50
2023-01-25T14:46:42.945Z,3.00
2023-01-25T14:49:25.367Z,2.30
2023-01-25T14:51:59.531Z,15.77
2023-01-25T14:54:30.423Z,3.07
2023-01-25T14:57:01.227Z,4.00
2023-01-25T14:59:38.430Z,7.57
2023-01-25T15:02:20.054Z,2.63
2023-01-25T15:05:08.036Z,2.97
2023-01-25T15:07:46.187Z,4.27
2023-01-25T15:10:21.229Z,2.57
2023-01-25T15:13:12.942Z,2.93
2023-01-25T15:15:54.915Z,2.30
2023-01-25T15:18:47.673Z,2.20
2023-01-25T15:21:17.632Z,2.30
2023-01-25T15:23:48.096Z,2.47
2023-01-25T15:26:20.868Z,2.90
2023-01-25T15:28:49.826Z,2.40
2023-01-25T15:31:22.225Z,4.63
2023-01-25T15:33:50.369Z,1.97
2023-01-25T15:36:18.723Z,1.80
2023-01-25T15:38:47.933Z,2.23
2023-01-25T15:41:18.477Z,2.07
2023-01-25T15:43:46.704Z,2.70
2023-01-25T15:46:19.468Z,1.80
2023-01-25T15:48:50.601Z,2.53
2023-01-25T15:51:18.867Z,2.80
2023-01-25T15:53:47.262Z,2.90
2023-01-25T15:56:19.113Z,2.50
2023-01-25T15:58:50.617Z,3.60
2023-01-25T16:01:18.990Z,24.63
2023-01-25T16:03:48.409Z,33.77
2023-01-25T16:06:36.759Z,23.93
2023-01-25T16:09:13.302Z,3.20
2023-01-25T16:11:42.434Z,4.90
2023-01-25T16:14:10.471Z,42.40
2023-01-25T16:16:42.266Z,1.67
2023-01-25T16:19:14.534Z,10.00
2023-01-25T16:21:42.845Z,6.53
2023-01-25T16:24:12.388Z,10.90
2023-01-25T16:26:45.881Z,2.90
2023-01-25T16:29:13.917Z,8.47
2023-01-25T16:31:42.073Z,3.57
2023-01-25T16:34:10.286Z,5.07
2023-01-25T16:36:40.309Z,6.77
2023-01-25T16:39:14.843Z,4.57
2023-01-25T16:41:42.864Z,4.23
2023-01-25T16:44:11.065Z,15.73
2023-01-25T16:46:39.452Z,7.40
2023-01-25T16:49:10.266Z,9.97
2023-01-25T16:51:40.474Z,5.97
2023-01-25T16:54:11.739Z,7.43
2023-01-25T16:56:40.074Z,6.70
2023-01-25T16:59:11.695Z,4.97
2023-01-25T17:01:41.595Z,7.87
2023-01-25T17:04:10.469Z,4.70
2023-01-25T17:06:44.226Z,4.80
2023-01-25T17:09:23.008Z,12.17
2023-01-25T17:11:54.806Z,10.70
2023-01-25T17:14:24.084Z,12.40
2023-01-25T17:16:53.522Z,6.43
2023-01-25T17:19:21.934Z,19.90
2023-01-25T17:21:51.726Z,5.53
2023-01-25T17:24:22.489Z,5.13
2023-01-25T17:26:51.194Z,6.47
2023-01-25T17:29:19.328Z,6.53
2023-01-25T17:31:47.582Z,8.73
2023-01-25T17:34:19.379Z,5.30
2023-01-25T17:36:50.495Z,3.90
2023-01-25T17:39:22.794Z,15.10
2023-01-25T17:41:52.266Z,10.37
2023-01-25T17:44:22.178Z,6.87
2023-01-25T17:46:51.355Z,10.87
2023-01-25T17:49:20.178Z,5.90
2023-01-25T17:51:48.262Z,12.77
2023-01-25T17:54:16.433Z,1.90
2023-01-25T17:56:45.709Z,13.77
2023-01-25T17:59:13.754Z,4.07
2023-01-25T18:01:42.940Z,11.77
2023-01-25T18:04:13.289Z,14.03
2023-01-25T18:06:41.694Z,10.83
2023-01-25T18:09:12.840Z,6.10
2023-01-25T18:11:41.254Z,6.07
2023-01-25T18:14:15.128Z,7.40
2023-01-25T18:16:43.751Z,5.03
2023-01-25T18:19:12.299Z,7.40
2023-01-25T18:21:42.060Z,4.40
2023-01-25T18:24:25.112Z,5.57
2023-01-25T18:26:55.439Z,4.00
2023-01-25T18:29:50.631Z,3.47
2023-01-25T18:32:18.648Z,3.40
2023-01-25T18:34:46.892Z,5.93
2023-01-25T18:37:23.376Z,4.13
2023-01-25T18:39:52.958Z,2.37
2023-01-25T18:42:22.479Z,2.33
2023-01-25T18:44:51.984Z,3.57
2023-01-25T18:47:22.613Z,2.60
2023-01-25T18:49:52.421Z,2.37
2023-01-25T18:52:21.954Z,3.20
2023-01-25T18:54:50.267Z,3.40
2023-01-25T18:57:18.981Z,2.17
2023-01-25T18:59:47.427Z,2.00
2023-01-25T19:02:18.280Z,2.93
2023-01-25T19:04:46.749Z,3.53
2023-01-25T19:07:14.907Z,2.90
2023-01-25T19:09:43.675Z,2.27
2023-01-25T19:12:12.145Z,2.90
2023-01-25T19:14:40.307Z,2.63
2023-01-25T19:17:08.978Z,3.00
2023-01-25T19:19:38.540Z,2.90
2023-01-25T19:22:06.868Z,1.63
2023-01-25T19:24:34.920Z,2.20
2023-01-25T19:27:03.559Z,3.30
2023-01-25T19:29:31.654Z,3.80
2023-01-25T19:32:00.008Z,1.90
2023-01-25T19:34:28.208Z,5.17
2023-01-25T19:36:58.287Z,2.30
2023-01-25T19:39:26.344Z,2.67
2023-01-25T19:41:54.788Z,2.80
2023-01-25T19:44:24.660Z,2.50
2023-01-25T19:46:52.727Z,2.63
2023-01-25T19:49:22.378Z,3.10
2023-01-25T19:51:53.331Z,2.67
2023-01-25T19:54:24.431Z,2.20
2023-01-25T19:56:52.804Z,1.77
2023-01-25T19:59:25.105Z,2.00
2023-01-25T20:01:53.749Z,1.80
2023-01-25T20:04:23.880Z,2.70
2023-01-25T20:06:53.072Z,2.37
2023-01-25T20:09:27.801Z,2.23
2023-01-25T20:11:56.882Z,3.20
2023-01-25T20:14:24.972Z,3.43
2023-01-25T20:16:54.044Z,3.40
2023-01-25T20:19:22.342Z,4.13
2023-01-25T20:21:50.903Z,2.77
2023-01-25T20:24:19.366Z,2.53
2023-01-25T20:26:49.248Z,2.40
2023-01-25T20:29:17.295Z,1.83
2023-01-25T20:31:47.049Z,2.43
2023-01-25T20:34:17.198Z,2.43
2023-01-25T20:36:46.225Z,2.43
2023-01-25T20:39:16.632Z,2.47
2023-01-25T20:41:46.545Z,2.87
2023-01-25T20:44:18.675Z,11.30
2023-01-25T20:46:46.930Z,2.77
2023-01-25T20:49:16.894Z,15.20
2023-01-25T20:51:45.504Z,3.00
2023-01-25T20:54:13.777Z,2.90
2023-01-25T20:56:48.063Z,2.47
2023-01-25T20:59:19.440Z,2.93
2023-01-25T21:01:51.099Z,3.70
2023-01-25T21:04:19.274Z,3.10
2023-01-25T21:06:47.983Z,2.77
2023-01-25T21:09:19.340Z,2.50
2023-01-25T21:11:48.864Z,3.17
2023-01-25T21:14:24.354Z,3.33
2023-01-25T21:16:55.588Z,4.33
2023-01-25T21:19:28.473Z,2.53
2023-01-25T21:21:56.882Z,2.83
2023-01-25T21:24:25.233Z,2.73
2023-01-25T21:26:53.947Z,2.97
2023-01-25T21:29:25.619Z,2.37
2023-01-25T21:31:54.741Z,2.90
2023-01-25T21:34:23.512Z,2.87
2023-01-25T21:36:54.631Z,2.80
2023-01-25T21:39:23.185Z,3.93
2023-01-25T21:41:51.522Z,3.70
2023-01-25T21:44:37.417Z,3.33
2023-01-25T21:47:28.752Z,3.07
2023-01-25T21:50:12.526Z,3.43
2023-01-25T21:52:43.563Z,4.73
2023-01-25T21:55:11.975Z,3.47
2023-01-25T21:57:46.996Z,3.53
2023-01-25T22:00:17.235Z,3.93
2023-01-25T22:02:47.193Z,3.13
2023-01-25T22:05:15.932Z,3.30
2023-01-25T22:07:44.015Z,3.07
2023-01-25T22:10:12.877Z,3.70
2023-01-25T22:12:41.059Z,6.27
2023-01-25T22:15:09.783Z,4.83
2023-01-25T22:17:37.793Z,3.90
2023-01-25T22:20:08.758Z,3.67
2023-01-25T22:22:36.937Z,2.67
2023-01-25T22:25:05.388Z,3.27
2023-01-25T22:27:39.329Z,2.83
2023-01-25T22:30:08.847Z,4.33
2023-01-25T22:32:40.097Z,3.20
2023-01-25T22:35:10.284Z,4.70
2023-01-25T22:37:38.920Z,3.27
2023-01-25T22:40:10.056Z,3.20
2023-01-25T22:42:38.425Z,2.63
2023-01-25T22:45:07.902Z,2.80
2023-01-25T22:47:36.092Z,3.83
2023-01-25T22:50:04.223Z,3.17
2023-01-25T22:52:33.761Z,4.40
2023-01-25T22:55:01.946Z,4.27
2023-01-25T22:57:29.997Z,3.33
2023-01-25T22:59:58.251Z,3.80
2023-01-25T23:02:26.318Z,4.30
2023-01-25T23:04:54.693Z,2.93
2023-01-25T23:07:22.880Z,2.60
2023-01-25T23:09:52.604Z,3.80
2023-01-25T23:12:21.903Z,3.40
2023-01-25T23:14:53.107Z,3.20
2023-01-25T23:17:39.666Z,3.13
2023-01-25T23:20:10.685Z,3.50
2023-01-25T23:22:41.761Z,3.10
2023-01-25T23:25:12.334Z,3.23
2023-01-25T23:27:40.644Z,2.90
2023-01-25T23:30:11.448Z,3.20
2023-01-25T23:32:39.786Z,3.03
2023-01-25T23:35:08.645Z,3.83
2023-01-25T23:37:36.962Z,3.17
2023-01-25T23:40:09.575Z,4.50
2023-01-25T23:42:40.362Z,3.57
2023-01-25T23:45:10.898Z,3.23
2023-01-25T23:47:39.203Z,3.27
2023-01-25T23:50:08.801Z,3.33
2023-01-25T23:52:37.896Z,2.90
2023-01-25T23:55:06.892Z,3.63
2023-01-25T23:57:35.083Z,2.63
